createdAt,value
2024-03-16T00:02:05.923Z,1.50
2024-03-16T00:07:08.055Z,1.35
2024-03-16T00:12:10.152Z,1.60
2024-03-16T00:17:12.129Z,1.70
2024-03-16T00:22:14.206Z,1.60
2024-03-16T00:27:16.250Z,1.50
2024-03-16T00:32:18.358Z,1.35
2024-03-16T00:37:20.476Z,1.60
2024-03-16T00:42:22.547Z,1.40
2024-03-16T00:47:24.816Z,1.40
2024-03-16T00:52:26.891Z,2.00
2024-03-16T00:57:29.995Z,1.73
2024-03-16T01:02:32.002Z,2.20
2024-03-16T01:07:34.031Z,1.80
2024-03-16T01:12:36.100Z,2.10
2024-03-16T01:17:38.590Z,1.30
2024-03-16T01:22:41.060Z,1.52
2024-03-16T01:27:43.114Z,1.73
2024-03-16T01:32:45.161Z,1.10
2024-03-16T01:37:47.234Z,2.13
2024-03-16T01:42:49.273Z,1.83
2024-03-16T01:47:53.991Z,1.80
2024-03-16T01:52:56.208Z,2.10
2024-03-16T01:57:58.381Z,1.70
2024-03-16T02:03:00.994Z,1.83
2024-03-16T02:08:03.280Z,1.58
2024-03-16T02:13:05.376Z,1.23
2024-03-16T02:18:10.959Z,0.90
2024-03-16T02:23:13.114Z,1.17
2024-03-16T02:28:15.528Z,1.10
2024-03-16T02:33:17.899Z,1.48
2024-03-16T02:38:20.087Z,1.25
2024-03-16T02:43:22.105Z,0.80
2024-03-16T02:48:24.116Z,1.10
2024-03-16T02:53:26.141Z,1.25
2024-03-16T02:58:28.166Z,1.33
2024-03-16T03:03:30.625Z,0.77
2024-03-16T03:08:33.622Z,1.25
2024-03-16T03:13:35.762Z,1.65
2024-03-16T03:18:37.846Z,0.80
2024-03-16T03:23:40.425Z,1.00
2024-03-16T03:28:42.543Z,0.77
2024-03-16T03:33:44.614Z,0.63
2024-03-16T03:38:46.994Z,0.93
2024-03-16T03:43:58.837Z,0.52
2024-03-16T03:49:13.197Z,0.90
2024-03-16T03:54:15.308Z,0.70
2024-03-16T03:59:17.524Z,1.73
2024-03-16T04:04:19.573Z,0.80
2024-03-16T04:09:21.621Z,0.75
2024-03-16T04:14:23.657Z,0.70
2024-03-16T04:19:25.748Z,0.93
2024-03-16T04:24:28.049Z,0.73
2024-03-16T04:29:32.553Z,0.68
2024-03-16T04:34:35.079Z,1.27
2024-03-16T04:39:37.488Z,1.38
2024-03-16T04:44:39.620Z,0.77
2024-03-16T04:49:41.831Z,0.82
2024-03-16T04:54:43.924Z,0.70
2024-03-16T04:59:45.953Z,0.82
2024-03-16T05:04:47.997Z,1.35
2024-03-16T05:09:50.050Z,0.73
2024-03-16T05:14:52.147Z,1.30
2024-03-16T05:19:54.247Z,0.80
2024-03-16T05:24:56.259Z,1.10
2024-03-16T05:29:58.335Z,0.60
2024-03-16T05:35:00.361Z,0.60
2024-03-16T05:40:03.186Z,0.90
2024-03-16T05:45:06.586Z,0.73
2024-03-16T05:50:09.325Z,0.95
2024-03-16T05:55:11.382Z,0.77
2024-03-16T06:00:16.945Z,0.82
2024-03-16T06:05:19.524Z,0.88
2024-03-16T06:10:21.657Z,0.63
2024-03-16T06:15:23.691Z,0.65
2024-03-16T06:20:25.747Z,0.70
2024-03-16T06:25:30.764Z,0.63
2024-03-16T06:30:32.957Z,0.68
2024-03-16T06:35:35.074Z,0.52
2024-03-16T06:40:37.100Z,1.00
2024-03-16T06:45:39.189Z,0.77
2024-03-16T06:50:41.281Z,0.95
2024-03-16T06:55:48.657Z,0.55
2024-03-16T07:00:50.851Z,0.47
2024-03-16T07:05:53.190Z,0.57
2024-03-16T07:10:58.244Z,0.30
2024-03-16T07:16:00.474Z,0.85
2024-03-16T07:21:02.560Z,0.70
2024-03-16T07:26:04.635Z,0.40
2024-03-16T07:31:06.855Z,1.08
2024-03-16T07:36:09.689Z,0.40
2024-03-16T07:41:12.116Z,0.55
2024-03-16T07:46:14.210Z,0.75
2024-03-16T07:51:18.257Z,0.40
2024-03-16T07:56:20.375Z,0.30
2024-03-16T08:01:25.313Z,0.63
2024-03-16T08:06:27.601Z,0.30
2024-03-16T08:11:31.387Z,0.73
2024-03-16T08:16:33.743Z,0.77
2024-03-16T08:21:37.464Z,0.50
2024-03-16T08:26:39.607Z,0.60
2024-03-16T08:31:41.628Z,0.57
2024-03-16T08:36:43.700Z,0.43
2024-03-16T08:41:45.851Z,0.63
2024-03-16T08:46:47.882Z,0.70
2024-03-16T08:51:49.967Z,0.50
2024-03-16T08:56:52.990Z,0.40
2024-03-16T09:01:55.116Z,0.45
2024-03-16T09:06:57.270Z,0.40
2024-03-16T09:11:59.300Z,0.63
2024-03-16T09:17:01.327Z,0.55
2024-03-16T09:22:03.532Z,0.95
2024-03-16T09:27:05.619Z,0.88
2024-03-16T09:32:07.678Z,0.85
2024-03-16T09:37:10.236Z,1.00
2024-03-16T09:42:13.602Z,1.30
